createdAt,value
2018-09-14T00:01:09.115Z,17.40
2018-09-14T00:03:38.387Z,17.40
2018-09-14T00:06:07.663Z,17.40
2018-09-14T00:08:43.737Z,17.40
2018-09-14T00:11:13.167Z,17.30
2018-09-14T00:13:42.439Z,17.40
2018-09-14T00:16:11.730Z,17.30
2018-09-14T00:18:40.939Z,17.30
2018-09-14T00:21:10.318Z,17.30
2018-09-14T00:23:39.548Z,17.30
2018-09-14T00:26:08.772Z,17.30
2018-09-14T00:28:38.043Z,17.30
2018-09-14T00:31:07.375Z,17.20
2018-09-14T00:33:36.678Z,17.20
2018-09-14T00:36:06.030Z,17.20
2018-09-14T00:38:35.332Z,17.20
2018-09-14T00:41:04.615Z,17.20
2018-09-14T00:43:33.837Z,17.10
2018-09-14T00:46:03.111Z,17.10
2018-09-14T00:48:32.351Z,17.00
2018-09-14T00:51:01.597Z,16.90
2018-09-14T00:53:30.765Z,16.70
2018-09-14T00:56:00.001Z,16.60
2018-09-14T00:58:29.625Z,16.40
2018-09-14T01:00:58.950Z,16.40
2018-09-14T01:03:28.186Z,16.40
2018-09-14T01:05:57.416Z,16.30
2018-09-14T01:08:26.699Z,16.20
2018-09-14T01:10:56.023Z,16.20
2018-09-14T01:13:25.315Z,16.20
2018-09-14T01:15:54.638Z,16.20
2018-09-14T01:18:23.983Z,16.20
2018-09-14T01:20:53.360Z,16.20
2018-09-14T01:23:22.633Z,16.10
2018-09-14T01:25:53.097Z,16.10
2018-09-14T01:28:22.376Z,16.10
2018-09-14T01:30:51.713Z,16.00
2018-09-14T01:33:20.903Z,16.00
2018-09-14T01:35:55.340Z,15.80
2018-09-14T01:38:24.548Z,15.80
2018-09-14T01:40:53.723Z,15.80
2018-09-14T01:43:22.924Z,15.80
2018-09-14T01:45:52.166Z,15.70
2018-09-14T01:48:21.508Z,15.70
2018-09-14T01:50:50.681Z,15.70
2018-09-14T01:53:19.896Z,15.70
2018-09-14T01:55:49.185Z,15.70
2018-09-14T01:58:18.478Z,15.60
2018-09-14T02:00:47.793Z,15.60
2018-09-14T02:03:17.055Z,15.60
2018-09-14T02:05:46.314Z,15.60
2018-09-14T02:08:16.469Z,15.50
2018-09-14T02:10:45.700Z,15.50
2018-09-14T02:13:15.031Z,15.40
2018-09-14T02:15:44.372Z,15.40
2018-09-14T02:18:13.711Z,15.40
2018-09-14T02:20:42.984Z,15.40
2018-09-14T02:23:12.306Z,15.30
2018-09-14T02:25:41.710Z,15.30
2018-09-14T02:28:10.980Z,15.20
2018-09-14T02:30:40.509Z,15.10
2018-09-14T02:33:09.881Z,15.00
2018-09-14T02:35:39.103Z,14.90
2018-09-14T02:38:08.317Z,14.80
2018-09-14T02:40:37.557Z,14.70
2018-09-14T02:43:06.772Z,14.70
2018-09-14T02:45:36.004Z,14.70
2018-09-14T02:48:05.383Z,14.60
2018-09-14T02:50:34.957Z,14.60
2018-09-14T02:53:04.209Z,14.60
2018-09-14T02:55:33.580Z,14.60
2018-09-14T02:58:02.820Z,14.60
2018-09-14T03:00:32.041Z,14.50
2018-09-14T03:03:01.200Z,14.50
2018-09-14T03:05:30.512Z,14.50
2018-09-14T03:07:59.735Z,14.50
2018-09-14T03:10:29.853Z,14.40
2018-09-14T03:12:59.113Z,14.40
2018-09-14T03:15:28.651Z,14.40
2018-09-14T03:17:58.138Z,14.40
2018-09-14T03:20:27.419Z,14.40
2018-09-14T03:22:56.714Z,14.40
2018-09-14T03:25:25.934Z,14.40
2018-09-14T03:27:55.188Z,14.40
2018-09-14T03:30:24.504Z,14.40
2018-09-14T03:32:53.731Z,14.50
2018-09-14T03:35:23.073Z,14.40
2018-09-14T03:37:52.339Z,14.40
2018-09-14T03:40:21.602Z,14.40
2018-09-14T03:42:50.770Z,14.40
2018-09-14T03:45:20.176Z,14.30
2018-09-14T03:47:49.393Z,14.30
2018-09-14T03:50:19.179Z,14.30
2018-09-14T03:52:48.381Z,14.30
2018-09-14T03:55:17.931Z,14.20
2018-09-14T03:57:47.158Z,14.20
2018-09-14T04:00:16.504Z,14.20
2018-09-14T04:02:45.691Z,14.20
2018-09-14T04:05:15.177Z,14.20
2018-09-14T04:07:44.441Z,14.20
2018-09-14T04:10:14.057Z,14.20
2018-09-14T04:12:43.462Z,14.20
2018-09-14T04:15:13.357Z,14.10
2018-09-14T04:17:43.167Z,14.10
2018-09-14T04:20:13.966Z,14.10
2018-09-14T04:22:43.577Z,14.10
2018-09-14T04:25:16.198Z,14.10
2018-09-14T04:27:45.884Z,14.10
2018-09-14T04:30:16.103Z,14.10
2018-09-14T04:32:45.831Z,14.10
2018-09-14T04:35:20.186Z,14.10
2018-09-14T04:37:49.453Z,14.10
2018-09-14T04:40:20.041Z,14.10
2018-09-14T04:42:50.808Z,14.10
2018-09-14T04:45:20.491Z,14.10
2018-09-14T04:47:50.005Z,14.10
2018-09-14T04:50:19.502Z,14.10
2018-09-14T04:52:48.746Z,14.10
2018-09-14T04:55:18.382Z,14.20
2018-09-14T04:57:47.641Z,14.20
2018-09-14T05:00:17.015Z,14.20
2018-09-14T05:02:46.287Z,14.20
2018-09-14T05:05:15.497Z,14.20
2018-09-14T05:07:44.717Z,14.10
2018-09-14T05:10:13.977Z,14.10
2018-09-14T05:12:43.184Z,14.10
2018-09-14T05:15:12.387Z,14.10
2018-09-14T05:17:41.622Z,14.10
2018-09-14T05:20:10.876Z,14.10
2018-09-14T05:22:40.083Z,14.00
2018-09-14T05:25:09.301Z,14.10
2018-09-14T05:27:38.559Z,14.10
2018-09-14T05:30:08.869Z,14.10
2018-09-14T05:32:38.110Z,14.10
2018-09-14T05:35:07.618Z,14.00
2018-09-14T05:37:37.079Z,14.00
2018-09-14T05:40:06.357Z,14.00
2018-09-14T05:42:35.560Z,14.00
2018-09-14T05:45:04.874Z,14.00
2018-09-14T05:47:34.095Z,14.00
2018-09-14T05:50:03.326Z,14.00
2018-09-14T05:52:32.664Z,14.10
2018-09-14T05:55:01.906Z,14.20
2018-09-14T05:57:31.128Z,14.20
2018-09-14T06:00:00.328Z,14.20
2018-09-14T06:02:29.564Z,14.30
2018-09-14T06:04:59.612Z,14.30
2018-09-14T06:07:28.944Z,14.30
2018-09-14T06:09:58.184Z,14.30
2018-09-14T06:12:27.666Z,14.30
2018-09-14T06:14:56.882Z,14.30
2018-09-14T06:17:26.146Z,14.30
2018-09-14T06:19:56.006Z,14.30
2018-09-14T06:22:25.407Z,14.30
2018-09-14T06:24:54.791Z,14.30
2018-09-14T06:27:23.987Z,14.30
2018-09-14T06:29:53.205Z,14.40
2018-09-14T06:32:23.352Z,14.40
2018-09-14T06:34:52.598Z,14.40
2018-09-14T06:37:22.047Z,14.40
2018-09-14T06:39:51.319Z,14.40
2018-09-14T06:42:20.533Z,14.40
2018-09-14T06:44:50.289Z,14.40
2018-09-14T06:47:19.555Z,14.40
2018-09-14T06:49:49.505Z,14.40
2018-09-14T06:52:18.777Z,14.40
2018-09-14T06:54:47.971Z,14.40
2018-09-14T06:57:17.240Z,14.40
2018-09-14T06:59:46.420Z,14.40
2018-09-14T07:02:15.886Z,14.40
2018-09-14T07:04:45.106Z,14.40
2018-09-14T07:07:14.320Z,14.40
2018-09-14T07:09:43.576Z,14.40
2018-09-14T07:12:12.832Z,14.40
2018-09-14T07:14:42.069Z,14.40
2018-09-14T07:17:12.652Z,14.50
2018-09-14T07:19:42.056Z,14.50
2018-09-14T07:22:11.385Z,14.50
2018-09-14T07:24:40.773Z,14.60
2018-09-14T07:27:10.880Z,14.60
2018-09-14T07:29:40.169Z,14.70
2018-09-14T07:32:09.478Z,14.70
2018-09-14T07:34:38.961Z,14.70
2018-09-14T07:37:08.355Z,14.70
2018-09-14T07:39:37.638Z,14.70
2018-09-14T07:42:07.179Z,14.70
2018-09-14T07:44:37.448Z,14.80
2018-09-14T07:47:08.128Z,14.80
2018-09-14T07:49:37.854Z,14.80
2018-09-14T07:52:08.259Z,14.80
2018-09-14T07:54:37.503Z,14.80
2018-09-14T07:57:06.695Z,14.80
2018-09-14T07:59:36.020Z,14.90
2018-09-14T08:02:05.180Z,14.90
2018-09-14T08:04:34.664Z,15.00
2018-09-14T08:07:03.873Z,15.00
2018-09-14T08:09:33.081Z,15.00
2018-09-14T08:12:02.359Z,15.00
2018-09-14T08:14:31.632Z,15.00
2018-09-14T08:17:00.939Z,15.00
2018-09-14T08:19:30.663Z,15.10
2018-09-14T08:22:00.030Z,15.10
2018-09-14T08:24:29.197Z,15.20
2018-09-14T08:26:58.519Z,15.20
2018-09-14T08:29:27.687Z,15.20
2018-09-14T08:31:56.910Z,15.30
2018-09-14T08:34:26.325Z,15.30
2018-09-14T08:36:55.542Z,15.30
2018-09-14T08:39:24.802Z,15.40
2018-09-14T08:41:54.120Z,15.40
2018-09-14T08:44:23.359Z,15.50
2018-09-14T08:46:52.593Z,15.50
2018-09-14T08:49:21.787Z,15.50
2018-09-14T08:51:51.001Z,15.70
2018-09-14T08:54:20.244Z,15.80
2018-09-14T08:56:49.476Z,15.80
2018-09-14T08:59:18.765Z,15.80
2018-09-14T09:01:48.061Z,15.90
2018-09-14T09:04:17.280Z,15.90
2018-09-14T09:06:46.555Z,16.00
2018-09-14T09:09:15.781Z,16.20
2018-09-14T09:11:44.963Z,16.30
2018-09-14T09:14:14.167Z,16.40
2018-09-14T09:16:43.470Z,16.40
2018-09-14T09:19:12.822Z,16.50
2018-09-14T09:21:42.376Z,16.50
2018-09-14T09:24:11.760Z,16.70
2018-09-14T09:26:41.073Z,16.70
2018-09-14T09:29:10.399Z,16.80
2018-09-14T09:31:39.692Z,16.70
2018-09-14T09:34:09.408Z,16.80
2018-09-14T09:36:38.944Z,16.80
2018-09-14T09:39:11.215Z,16.90
2018-09-14T09:41:41.496Z,17.10
2018-09-14T09:44:11.267Z,17.30
2018-09-14T09:46:40.530Z,17.30
2018-09-14T09:49:09.862Z,17.30
2018-09-14T09:51:39.200Z,17.20
2018-09-14T09:54:08.504Z,17.20
2018-09-14T09:56:37.981Z,17.20
2018-09-14T09:59:07.694Z,17.00
2018-09-14T10:01:41.879Z,17.00
2018-09-14T10:04:16.705Z,17.10
2018-09-14T10:06:46.656Z,17.00
2018-09-14T10:09:15.994Z,17.00
2018-09-14T10:11:45.257Z,17.10
2018-09-14T10:14:14.623Z,17.20
2018-09-14T10:16:43.951Z,17.10
2018-09-14T10:19:13.351Z,17.30
2018-09-14T10:21:43.048Z,17.40
2018-09-14T10:24:12.563Z,17.60
2018-09-14T10:26:41.986Z,17.60
2018-09-14T10:29:13.477Z,17.60
2018-09-14T10:31:43.582Z,17.70
2018-09-14T10:34:12.968Z,17.70
2018-09-14T10:36:42.279Z,17.60
2018-09-14T10:39:12.575Z,17.50
2018-09-14T10:41:41.932Z,17.50
2018-09-14T10:44:11.388Z,17.40
2018-09-14T10:46:40.700Z,17.50
2018-09-14T10:49:10.016Z,17.60
2018-09-14T10:51:39.469Z,17.60
2018-09-14T10:54:08.896Z,17.60
2018-09-14T10:56:38.263Z,17.80
2018-09-14T10:59:07.598Z,17.80
2018-09-14T11:01:36.913Z,17.90
2018-09-14T11:04:06.316Z,17.80
2018-09-14T11:06:36.672Z,18.00
2018-09-14T11:09:10.116Z,18.20
2018-09-14T11:11:39.429Z,18.40
2018-09-14T11:14:08.790Z,18.50
2018-09-14T11:16:38.343Z,18.60
2018-09-14T11:19:07.744Z,18.70
2018-09-14T11:21:37.142Z,18.60
2018-09-14T11:24:06.486Z,18.30
2018-09-14T11:26:35.738Z,18.20
2018-09-14T11:29:05.083Z,18.10
2018-09-14T11:31:34.607Z,17.90
2018-09-14T11:34:03.890Z,17.80
2018-09-14T11:36:33.208Z,17.80
2018-09-14T11:39:02.437Z,17.70
2018-09-14T11:41:33.097Z,17.80
2018-09-14T11:44:02.308Z,17.80
2018-09-14T11:46:31.856Z,17.80
2018-09-14T11:49:01.097Z,17.70
2018-09-14T11:51:30.671Z,17.60
2018-09-14T11:54:00.066Z,17.60
2018-09-14T11:56:29.327Z,17.40
2018-09-14T11:58:58.624Z,17.40
2018-09-14T12:01:27.925Z,17.50
2018-09-14T12:03:58.419Z,17.60
2018-09-14T12:06:27.956Z,17.80
2018-09-14T12:08:57.509Z,18.00
2018-09-14T12:11:26.930Z,18.10
2018-09-14T12:13:56.235Z,18.10
2018-09-14T12:16:25.752Z,18.20
2018-09-14T12:18:54.982Z,18.30
2018-09-14T12:21:24.576Z,18.30
2018-09-14T12:23:53.992Z,18.30
2018-09-14T12:26:23.339Z,18.40
2018-09-14T12:28:52.699Z,18.50
2018-09-14T12:31:22.145Z,18.60
2018-09-14T12:33:51.623Z,18.60
2018-09-14T12:36:20.879Z,18.60
2018-09-14T12:38:50.300Z,18.70
2018-09-14T12:41:19.616Z,18.80
2018-09-14T12:43:48.917Z,18.90
2018-09-14T12:46:18.508Z,18.90
2018-09-14T12:48:48.091Z,19.00
2018-09-14T12:51:17.339Z,19.00
2018-09-14T12:53:46.602Z,19.00
2018-09-14T12:56:15.918Z,19.30
2018-09-14T12:58:45.158Z,19.40
2018-09-14T13:01:14.712Z,19.50
2018-09-14T13:03:43.985Z,19.50
2018-09-14T13:06:13.343Z,19.50
2018-09-14T13:08:42.796Z,19.50
2018-09-14T13:11:12.254Z,19.60
2018-09-14T13:13:42.368Z,19.60
2018-09-14T13:16:11.935Z,19.50
2018-09-14T13:18:41.315Z,19.40
2018-09-14T13:21:10.731Z,19.40
2018-09-14T13:23:40.469Z,19.20
2018-09-14T13:26:10.167Z,19.20
2018-09-14T13:28:39.605Z,19.20
2018-09-14T13:31:09.112Z,19.20
2018-09-14T13:33:38.539Z,19.10
2018-09-14T13:36:07.893Z,19.10
2018-09-14T13:38:38.230Z,19.00
2018-09-14T13:41:07.779Z,19.00
2018-09-14T13:43:37.198Z,19.00
2018-09-14T13:46:06.607Z,18.90
2018-09-14T13:48:35.983Z,18.80
2018-09-14T13:51:05.345Z,18.80
2018-09-14T13:53:34.938Z,18.80
2018-09-14T13:56:04.266Z,18.90
2018-09-14T13:58:33.622Z,19.00
2018-09-14T14:01:03.160Z,19.00
2018-09-14T14:03:32.388Z,19.10
2018-09-14T14:06:01.651Z,19.20
2018-09-14T14:08:30.820Z,19.30
2018-09-14T14:11:00.138Z,19.40
2018-09-14T14:13:29.351Z,19.40
2018-09-14T14:15:58.614Z,19.40
2018-09-14T14:18:27.811Z,19.40
2018-09-14T14:20:57.721Z,19.40
2018-09-14T14:23:26.924Z,19.40
2018-09-14T14:25:56.347Z,19.50
2018-09-14T14:28:25.559Z,19.50
2018-09-14T14:30:54.794Z,19.50
2018-09-14T14:33:24.056Z,19.50
2018-09-14T14:35:53.263Z,19.60
2018-09-14T14:38:22.539Z,19.70
2018-09-14T14:40:52.133Z,19.60
2018-09-14T14:43:21.531Z,19.70
2018-09-14T14:45:50.795Z,19.70
2018-09-14T14:48:20.016Z,19.70
2018-09-14T14:50:49.399Z,19.60
2018-09-14T14:53:18.637Z,19.70
2018-09-14T14:55:48.021Z,19.70
2018-09-14T14:58:19.803Z,19.70
2018-09-14T15:00:49.557Z,19.70
2018-09-14T15:03:19.378Z,19.70
2018-09-14T15:05:48.752Z,19.70
2018-09-14T15:08:19.258Z,19.70
2018-09-14T15:10:48.659Z,19.70
2018-09-14T15:13:18.020Z,19.70
2018-09-14T15:15:47.359Z,19.60
2018-09-14T15:18:16.859Z,19.50
2018-09-14T15:20:46.248Z,19.50
2018-09-14T15:23:15.775Z,19.60
2018-09-14T15:25:45.180Z,19.50
2018-09-14T15:28:14.631Z,19.50
2018-09-14T15:30:44.089Z,19.50
2018-09-14T15:33:13.672Z,19.60
2018-09-14T15:35:43.122Z,19.50
2018-09-14T15:38:12.536Z,19.60
2018-09-14T15:40:42.028Z,19.50
2018-09-14T15:43:11.361Z,19.40
2018-09-14T15:45:41.048Z,19.30
2018-09-14T15:48:10.436Z,19.20
2018-09-14T15:50:40.542Z,19.00
2018-09-14T15:53:10.028Z,18.90
2018-09-14T15:55:39.727Z,18.80
2018-09-14T15:58:09.174Z,18.80
2018-09-14T16:00:38.910Z,18.70
2018-09-14T16:03:08.352Z,18.70
2018-09-14T16:05:37.708Z,18.60
2018-09-14T16:08:07.241Z,18.60
2018-09-14T16:10:36.473Z,18.50
2018-09-14T16:13:06.166Z,18.40
2018-09-14T16:15:35.852Z,18.40
2018-09-14T16:18:05.148Z,18.30
2018-09-14T16:20:34.548Z,18.30
2018-09-14T16:23:03.850Z,18.20
2018-09-14T16:25:33.106Z,18.10
2018-09-14T16:28:02.362Z,18.10
2018-09-14T16:30:31.902Z,18.00
2018-09-14T16:33:01.342Z,18.00
2018-09-14T16:35:30.654Z,17.90
2018-09-14T16:38:00.307Z,17.90
2018-09-14T16:40:29.875Z,17.80
2018-09-14T16:42:59.297Z,17.80
2018-09-14T16:45:28.620Z,17.70
2018-09-14T16:47:59.087Z,17.70
2018-09-14T16:50:28.501Z,17.60
2018-09-14T16:52:57.869Z,17.50
2018-09-14T16:55:27.244Z,17.40
2018-09-14T16:57:56.642Z,17.40
2018-09-14T17:00:28.364Z,17.30
2018-09-14T17:02:58.131Z,17.30
2018-09-14T17:05:28.293Z,17.20
2018-09-14T17:07:57.919Z,17.10
2018-09-14T17:10:27.130Z,17.00
2018-09-14T17:12:56.514Z,17.00
2018-09-14T17:15:26.934Z,16.90
2018-09-14T17:17:56.450Z,16.90
2018-09-14T17:20:25.671Z,16.80
2018-09-14T17:22:54.852Z,16.70
2018-09-14T17:25:24.112Z,16.60
2018-09-14T17:27:53.361Z,16.40
2018-09-14T17:30:22.620Z,16.30
2018-09-14T17:32:51.880Z,16.20
2018-09-14T17:35:21.223Z,16.20
2018-09-14T17:37:50.535Z,16.10
2018-09-14T17:40:19.786Z,16.00
2018-09-14T17:42:49.006Z,16.00
2018-09-14T17:45:18.328Z,15.90
2018-09-14T17:47:47.613Z,15.80
2018-09-14T17:50:17.026Z,15.70
2018-09-14T17:52:46.796Z,15.60
2018-09-14T17:55:16.290Z,15.60
2018-09-14T17:57:45.734Z,15.50
2018-09-14T18:00:14.923Z,15.40
2018-09-14T18:02:44.128Z,15.40
2018-09-14T18:05:13.377Z,15.30
2018-09-14T18:07:42.662Z,15.30
2018-09-14T18:10:11.887Z,15.30
2018-09-14T18:12:41.083Z,15.20
2018-09-14T18:15:10.595Z,15.20
2018-09-14T18:17:39.951Z,15.20
2018-09-14T18:20:09.232Z,15.20
2018-09-14T18:22:38.869Z,15.10
2018-09-14T18:25:08.254Z,15.10
2018-09-14T18:27:37.788Z,15.10
2018-09-14T18:30:07.226Z,15.20
2018-09-14T18:32:36.474Z,15.20
2018-09-14T18:35:05.895Z,15.20
2018-09-14T18:37:35.224Z,15.20
2018-09-14T18:40:05.001Z,15.30
2018-09-14T18:42:34.277Z,15.30
2018-09-14T18:45:03.539Z,15.40
2018-09-14T18:47:32.733Z,15.40
2018-09-14T18:50:02.450Z,15.40
2018-09-14T18:52:31.758Z,15.40
2018-09-14T18:55:00.986Z,15.30
2018-09-14T18:57:30.226Z,15.30
2018-09-14T18:59:59.757Z,15.20
2018-09-14T19:02:29.247Z,15.20
2018-09-14T19:05:00.930Z,15.10
2018-09-14T19:07:30.516Z,15.10
2018-09-14T19:10:04.362Z,15.00
2018-09-14T19:12:34.084Z,14.90
2018-09-14T19:15:06.980Z,14.90
2018-09-14T19:17:38.215Z,14.90
2018-09-14T19:20:07.603Z,14.90
2018-09-14T19:22:36.822Z,14.90
2018-09-14T19:25:06.036Z,14.90
2018-09-14T19:27:35.295Z,14.90
2018-09-14T19:30:04.643Z,14.90
2018-09-14T19:32:34.256Z,15.00
2018-09-14T19:35:03.490Z,15.00
2018-09-14T19:37:32.729Z,15.00
2018-09-14T19:40:02.208Z,15.10
2018-09-14T19:42:31.578Z,15.10
2018-09-14T19:45:01.482Z,15.10
2018-09-14T19:47:30.746Z,15.20
2018-09-14T19:50:00.961Z,15.20
2018-09-14T19:52:30.918Z,15.20
2018-09-14T19:55:01.226Z,15.20
2018-09-14T19:57:31.038Z,15.10
2018-09-14T20:00:01.008Z,15.10
2018-09-14T20:02:30.749Z,15.10
2018-09-14T20:05:00.307Z,15.10
2018-09-14T20:07:30.048Z,15.10
2018-09-14T20:10:00.281Z,15.00
2018-09-14T20:12:30.274Z,15.00
2018-09-14T20:15:00.236Z,14.90
2018-09-14T20:17:30.287Z,14.90
2018-09-14T20:20:00.916Z,14.80
2018-09-14T20:22:30.834Z,14.80
2018-09-14T20:25:01.028Z,14.70
2018-09-14T20:27:36.669Z,14.70
2018-09-14T20:30:09.683Z,14.70
2018-09-14T20:32:39.743Z,14.70
2018-09-14T20:35:10.139Z,14.60
2018-09-14T20:37:40.225Z,14.60
2018-09-14T20:40:09.897Z,14.60
2018-09-14T20:42:39.906Z,14.50
2018-09-14T20:45:09.575Z,14.50
2018-09-14T20:47:41.345Z,14.50
2018-09-14T20:50:11.282Z,14.50
2018-09-14T20:52:41.672Z,14.40
2018-09-14T20:55:11.748Z,14.40
2018-09-14T20:57:41.651Z,14.40
2018-09-14T21:00:12.048Z,14.30
2018-09-14T21:02:42.628Z,14.30
2018-09-14T21:05:12.460Z,14.30
2018-09-14T21:07:42.244Z,14.30
2018-09-14T21:10:11.558Z,14.30
2018-09-14T21:12:40.744Z,14.30
2018-09-14T21:15:10.063Z,14.20
2018-09-14T21:17:39.376Z,14.20
2018-09-14T21:20:08.713Z,14.20
2018-09-14T21:22:38.138Z,14.10
2018-09-14T21:25:07.664Z,14.10
2018-09-14T21:27:37.105Z,14.10
2018-09-14T21:30:07.627Z,14.10
2018-09-14T21:32:37.998Z,14.10
2018-09-14T21:35:07.537Z,14.10
2018-09-14T21:37:36.798Z,14.00
2018-09-14T21:40:06.541Z,14.00
2018-09-14T21:42:35.916Z,14.00
2018-09-14T21:45:05.556Z,13.90
2018-09-14T21:47:35.519Z,13.90
2018-09-14T21:50:04.977Z,13.80
2018-09-14T21:52:34.247Z,13.80
2018-09-14T21:55:03.793Z,13.80
2018-09-14T21:57:33.254Z,13.80
2018-09-14T22:00:07.629Z,13.80
2018-09-14T22:02:37.070Z,13.80
2018-09-14T22:05:06.785Z,13.80
2018-09-14T22:07:37.072Z,13.80
2018-09-14T22:10:06.748Z,13.80
2018-09-14T22:12:36.654Z,13.80
2018-09-14T22:15:06.011Z,13.70
2018-09-14T22:17:35.948Z,13.70
2018-09-14T22:20:05.495Z,13.60
2018-09-14T22:22:34.863Z,13.60
2018-09-14T22:25:04.337Z,13.60
2018-09-14T22:27:33.608Z,13.50
2018-09-14T22:30:03.149Z,13.50
2018-09-14T22:32:33.726Z,13.50
2018-09-14T22:35:03.130Z,13.50
2018-09-14T22:37:32.608Z,13.50
2018-09-14T22:40:01.917Z,13.50
2018-09-14T22:42:31.279Z,13.50
2018-09-14T22:45:00.667Z,13.50
2018-09-14T22:47:30.499Z,13.50
2018-09-14T22:50:00.093Z,13.50
2018-09-14T22:52:29.344Z,13.50
2018-09-14T22:54:58.636Z,13.50
2018-09-14T22:57:27.910Z,13.50
2018-09-14T22:59:57.340Z,13.60
2018-09-14T23:02:26.670Z,13.50
2018-09-14T23:04:55.847Z,13.50
2018-09-14T23:07:25.087Z,13.50
2018-09-14T23:09:54.344Z,13.50
2018-09-14T23:12:23.599Z,13.50
2018-09-14T23:14:52.865Z,13.50
2018-09-14T23:17:22.127Z,13.50
2018-09-14T23:19:51.367Z,13.50
2018-09-14T23:22:20.576Z,13.50
2018-09-14T23:24:49.827Z,13.60
2018-09-14T23:27:19.039Z,13.60
2018-09-14T23:29:49.005Z,13.70
2018-09-14T23:32:18.323Z,13.70
2018-09-14T23:34:48.087Z,13.80
2018-09-14T23:37:17.318Z,13.80
2018-09-14T23:39:46.835Z,13.80
2018-09-14T23:42:16.085Z,13.80
2018-09-14T23:44:45.294Z,13.80
2018-09-14T23:47:14.862Z,13.90
2018-09-14T23:49:44.126Z,14.00
2018-09-14T23:52:13.430Z,14.00
2018-09-14T23:54:42.904Z,14.00
2018-09-14T23:57:12.162Z,14.10
2018-09-14T23:59:41.360Z,14.10
